Time;durP1;ratioP1;P1;durP2;ratioP2;P2;SDS_P1;SDS_P2;PMS_P1;PMS_P2;Temp;Humidity;BMP_temperature;BMP_pressure;BME280_temperature;BME280_humidity;BME280_pressure;Samples;Min_cycle;Max_cycle;Signal;HPM_P1;HPM_P2
2022/03/31 00:01:11;;;;;;;17.62;9.68;;;;;;;14.78;58.08;98322.38;4480105;32;32170;-64
2022/03/31 00:03:39;;;;;;;23.98;9.98;;;;;;;14.67;58.35;98314.47;4480420;31;34575;-65
2022/03/31 00:06:07;;;;;;;17.45;9.48;;;;;;;14.70;58.04;98315.38;4478358;31;33739;-65
2022/03/31 00:08:34;;;;;;;21.02;9.70;;;;;;;14.61;58.33;98314.47;4479674;31;33043;-64
2022/03/31 00:11:02;;;;;;;20.27;8.95;;;;;;;14.88;57.16;98313.72;4478963;31;33994;-64
2022/03/31 00:13:30;;;;;;;18.50;9.35;;;;;;;14.92;57.07;98302.41;4481153;31;34297;-64
2022/03/31 00:15:58;;;;;;;17.67;9.57;;;;;;;14.98;57.05;98310.25;4482359;31;33447;-65
2022/03/31 00:18:28;;;;;;;25.25;10.23;;;;;;;14.86;57.30;98299.78;4480881;31;33038;-64
2022/03/31 00:20:55;;;;;;;18.30;9.25;;;;;;;14.71;57.79;98311.88;4480999;31;32582;-65
2022/03/31 00:23:22;;;;;;;23.00;9.40;;;;;;;14.63;57.95;98313.59;4482075;31;34647;-65
2022/03/31 00:25:50;;;;;;;24.02;9.55;;;;;;;14.95;56.90;98299.84;4479763;31;34561;-63
2022/03/31 00:28:18;;;;;;;22.85;9.43;;;;;;;14.81;57.12;98302.37;4479416;31;33523;-64
2022/03/31 00:30:45;;;;;;;17.42;9.85;;;;;;;14.48;57.99;98305.66;4480765;31;33289;-64
2022/03/31 00:33:13;;;;;;;21.02;9.63;;;;;;;14.59;57.98;98298.81;4481618;31;33437;-64
2022/03/31 00:35:40;;;;;;;19.00;9.82;;;;;;;14.42;58.12;98293.47;4480665;31;32475;-64
2022/03/31 00:38:10;;;;;;;21.65;11.40;;;;;;;14.23;58.62;98289.91;4480651;31;33276;-64
2022/03/31 00:40:39;;;;;;;34.90;14.60;;;;;;;14.40;58.49;98289.13;4480882;31;32861;-64
2022/03/31 00:43:08;;;;;;;29.20;15.27;;;;;;;14.35;58.65;98292.59;4480523;31;33791;-64
2022/03/31 00:45:46;;;;;;;27.23;13.93;;;;;;;14.63;57.53;98292.75;4479768;32;33963;-65
2022/03/31 00:48:16;;;;;;;26.40;12.57;;;;;;;14.35;57.90;98294.31;4481308;31;32923;-64
2022/03/31 00:50:44;;;;;;;24.65;12.20;;;;;;;14.30;57.73;98289.09;4480985;31;36354;-64
2022/03/31 00:53:11;;;;;;;25.37;12.25;;;;;;;14.34;57.56;98285.63;4481494;31;33661;-65
2022/03/31 00:55:59;;;;;;;21.52;11.20;;;;;;;14.38;57.32;98283.06;4481084;31;34373;-64
2022/03/31 00:58:27;;;;;;;22.77;9.75;;;;;;;14.06;58.69;98273.31;4479210;32;31284;-65
2022/03/31 01:00:54;;;;;;;23.55;10.70;;;;;;;14.25;57.96;98263.87;4479418;31;33759;-64
2022/03/31 01:03:22;;;;;;;18.23;9.90;;;;;;;14.34;57.75;98264.78;4480153;32;32004;-64
2022/03/31 01:05:49;;;;;;;29.10;10.85;;;;;;;14.19;58.21;98259.50;4479568;31;33762;-64
2022/03/31 01:08:17;;;;;;;19.70;10.20;;;;;;;13.94;58.92;98256.75;4479991;31;32146;-64
2022/03/31 01:10:48;;;;;;;22.13;9.32;;;;;;;14.17;58.51;98256.00;4479759;31;32901;-64
2022/03/31 01:13:16;;;;;;;17.23;10.65;;;;;;;14.04;58.88;98249.88;4480323;31;32746;-64
2022/03/31 01:15:43;;;;;;;20.90;10.50;;;;;;;13.76;59.72;98246.22;4479041;31;33629;-64
2022/03/31 01:18:11;;;;;;;25.90;11.48;;;;;;;13.73;59.67;98241.88;4479742;31;32121;-65
2022/03/31 01:20:39;;;;;;;26.50;10.82;;;;;;;13.72;59.91;98247.06;4479458;31;33537;-64
2022/03/31 01:23:11;;;;;;;23.80;11.38;;;;;;;13.76;59.73;98244.47;4478437;32;32898;-64
2022/03/31 01:25:39;;;;;;;21.23;10.27;;;;;;;13.87;59.61;98241.06;4478383;32;33194;-65
2022/03/31 01:28:07;;;;;;;18.35;9.98;;;;;;;14.29;57.88;98248.28;4480019;31;33108;-64
2022/03/31 01:30:35;;;;;;;24.95;10.35;;;;;;;13.99;58.84;98245.50;4479103;31;33945;-64
2022/03/31 01:33:03;;;;;;;22.65;11.00;;;;;;;14.05;58.62;98229.91;4479300;31;33640;-64
2022/03/31 01:35:30;;;;;;;18.15;10.27;;;;;;;13.95;59.20;98235.06;4478894;31;33237;-64
2022/03/31 01:37:57;;;;;;;18.33;10.38;;;;;;;14.41;57.36;98230.94;4478595;31;33953;-64
2022/03/31 01:40:25;;;;;;;23.02;11.07;;;;;;;13.92;59.38;98234.19;4479260;31;34751;-64
2022/03/31 01:42:52;;;;;;;21.42;10.32;;;;;;;13.80;59.73;98224.56;4478379;31;34625;-64
2022/03/31 01:45:20;;;;;;;22.20;11.12;;;;;;;13.66;60.24;98226.22;4479844;31;34461;-65
2022/03/31 01:47:48;;;;;;;23.42;11.52;;;;;;;13.86;59.59;98226.34;4480813;31;33302;-64
2022/03/31 01:50:15;;;;;;;21.52;11.02;;;;;;;14.05;59.12;98230.78;4480986;31;34108;-64
2022/03/31 01:52:43;;;;;;;22.60;11.68;;;;;;;14.01;59.53;98233.37;4480377;31;34519;-64
2022/03/31 01:55:11;;;;;;;25.20;14.05;;;;;;;13.86;59.88;98229.78;4478793;32;34567;-64
2022/03/31 01:57:38;;;;;;;35.20;19.70;;;;;;;13.55;60.74;98234.78;4480985;31;33394;-65
2022/03/31 02:00:08;;;;;;;26.27;14.65;;;;;;;14.15;58.83;98231.69;4480960;31;33618;-64
2022/03/31 02:02:39;;;;;;;22.80;11.35;;;;;;;13.84;59.86;98215.03;4481229;31;33724;-64
2022/03/31 02:05:08;;;;;;;21.75;11.10;;;;;;;13.42;61.62;98206.94;4480777;31;33818;-64
2022/03/31 02:07:36;;;;;;;22.95;11.45;;;;;;;13.40;61.42;98213.00;4481202;31;32189;-63
2022/03/31 02:10:13;;;;;;;23.40;10.88;;;;;;;13.82;59.65;98212.44;4482250;31;34561;-64
2022/03/31 02:12:41;;;;;;;29.90;11.80;;;;;;;14.29;58.13;98204.00;4483090;31;33542;-65
2022/03/31 02:15:10;;;;;;;27.27;12.70;;;;;;;13.62;60.09;98203.59;4485050;31;33720;-65
2022/03/31 02:17:38;;;;;;;22.70;12.37;;;;;;;13.30;61.02;98201.66;4481315;32;33996;-64
2022/03/31 02:20:06;;;;;;;19.83;12.18;;;;;;;13.45;60.50;98204.38;4479987;32;33326;-64
2022/03/31 02:22:33;;;;;;;23.10;11.93;;;;;;;13.39;60.55;98196.53;4482783;31;33761;-64
2022/03/31 02:25:01;;;;;;;24.83;12.05;;;;;;;13.47;60.33;98205.25;4481805;31;32528;-63
2022/03/31 02:27:29;;;;;;;22.33;12.15;;;;;;;13.62;59.80;98204.50;4481116;31;32920;-64
2022/03/31 02:29:56;;;;;;;22.00;11.43;;;;;;;13.89;58.79;98209.00;4483407;31;34704;-64
2022/03/31 02:32:23;;;;;;;22.83;11.82;;;;;;;13.65;59.92;98203.63;4480904;32;33821;-64
2022/03/31 02:34:52;;;;;;;20.75;11.45;;;;;;;13.69;59.72;98205.41;4483298;31;34200;-64
2022/03/31 02:37:19;;;;;;;24.55;11.38;;;;;;;13.83;59.03;98203.78;4482050;31;33516;-64
2022/03/31 02:39:47;;;;;;;23.10;12.80;;;;;;;14.23;57.72;98203.97;4481951;31;32486;-65
2022/03/31 02:42:16;;;;;;;21.55;12.20;;;;;;;14.27;57.33;98194.44;4482171;31;34814;-64
2022/03/31 02:44:44;;;;;;;21.50;12.73;;;;;;;14.47;56.55;98191.91;4480491;31;32714;-64
2022/03/31 02:47:12;;;;;;;28.05;13.20;;;;;;;14.36;56.89;98190.12;4481928;31;34102;-64
2022/03/31 02:49:40;;;;;;;24.50;11.75;;;;;;;14.29;57.02;98182.28;4482556;31;33884;-65
2022/03/31 02:52:08;;;;;;;24.67;12.05;;;;;;;14.11;57.81;98177.88;4482341;31;34023;-65
2022/03/31 02:57:22;;;;;;;25.88;12.57;;;;;;;14.29;56.97;98175.38;4481799;31;34201;-64
2022/03/31 02:59:49;;;;;;;23.75;12.65;;;;;;;14.29;57.10;98183.19;4482248;31;34491;-64
2022/03/31 03:02:17;;;;;;;24.80;12.50;;;;;;;14.07;58.22;98170.91;4482412;32;33530;-65
2022/03/31 03:04:45;;;;;;;22.98;12.43;;;;;;;14.32;57.22;98166.69;4489363;31;34520;-64
2022/03/31 03:07:12;;;;;;;23.30;12.13;;;;;;;13.68;59.33;98172.44;4493401;31;34006;-64
2022/03/31 03:09:39;;;;;;;20.58;11.95;;;;;;;13.84;58.65;98182.06;4485218;31;33761;-64
2022/03/31 03:12:09;;;;;;;21.42;11.80;;;;;;;13.77;58.83;98177.69;4484069;32;33478;-64
2022/03/31 03:14:36;;;;;;;21.27;11.38;;;;;;;13.56;59.51;98176.72;4483933;31;33692;-65
2022/03/31 03:17:04;;;;;;;22.02;11.80;;;;;;;13.68;59.28;98175.06;4485299;31;33962;-63
2022/03/31 03:19:31;;;;;;;20.80;10.75;;;;;;;13.57;59.54;98164.56;4490379;31;33993;-64
2022/03/31 03:21:59;;;;;;;17.83;10.93;;;;;;;13.66;59.13;98163.75;4487925;31;33683;-64
2022/03/31 03:24:26;;;;;;;21.02;10.70;;;;;;;14.06;57.89;98158.75;4487936;31;33739;-65
2022/03/31 03:26:54;;;;;;;16.67;10.65;;;;;;;13.76;58.91;98158.59;4484997;31;33556;-64
2022/03/31 03:29:21;;;;;;;22.20;11.25;;;;;;;14.16;57.42;98155.34;4476427;31;33921;-64
2022/03/31 03:31:51;;;;;;;18.58;11.55;;;;;;;14.16;57.35;98161.41;4490479;31;34716;-64
2022/03/31 03:34:19;;;;;;;22.13;11.93;;;;;;;14.03;57.87;98158.75;4488254;31;33846;-65
2022/03/31 03:36:46;;;;;;;24.02;11.55;;;;;;;14.08;57.69;98157.03;4487186;31;33523;-64
2022/03/31 03:39:14;;;;;;;17.65;11.38;;;;;;;14.16;57.52;98144.94;4496845;31;33434;-65
2022/03/31 03:41:42;;;;;;;20.05;11.10;;;;;;;13.98;58.25;98144.84;4487757;31;33623;-64
2022/03/31 03:44:09;;;;;;;16.67;10.07;;;;;;;14.09;57.79;98143.16;4496013;31;33951;-64
2022/03/31 03:46:37;;;;;;;21.02;11.68;;;;;;;13.84;58.51;98136.97;4491343;31;33159;-64
2022/03/31 03:49:05;;;;;;;20.98;10.50;;;;;;;14.22;57.30;98144.94;4485032;31;33932;-64
2022/03/31 03:51:32;;;;;;;19.98;11.27;;;;;;;13.86;58.50;98130.91;4482487;31;33514;-63
2022/03/31 03:54:00;;;;;;;21.08;11.90;;;;;;;14.03;58.10;98130.97;4484331;31;33472;-65
2022/03/31 03:56:28;;;;;;;19.77;10.63;;;;;;;14.00;58.13;98123.12;4490987;31;33850;-64
2022/03/31 03:58:55;;;;;;;21.77;10.43;;;;;;;14.08;58.06;98133.59;4492327;31;33603;-64
2022/03/31 04:01:22;;;;;;;19.98;11.52;;;;;;;14.19;57.38;98131.03;4483159;31;33950;-65
2022/03/31 04:03:50;;;;;;;19.17;10.77;;;;;;;13.92;58.33;98130.06;4484497;31;34126;-64
2022/03/31 04:06:18;;;;;;;18.67;10.98;;;;;;;14.15;57.38;98117.13;4484903;31;34196;-64
2022/03/31 04:08:45;;;;;;;19.27;10.98;;;;;;;14.13;57.51;98118.87;4485391;31;33697;-64
2022/03/31 04:11:13;;;;;;;18.40;11.00;;;;;;;13.80;58.42;98125.66;4491138;31;33951;-64
2022/03/31 04:13:40;;;;;;;22.67;11.18;;;;;;;13.51;59.59;98128.97;4484742;31;33971;-65
2022/03/31 04:16:08;;;;;;;19.75;11.38;;;;;;;13.49;59.56;98125.50;4492075;31;33474;-65
2022/03/31 04:18:35;;;;;;;21.00;10.45;;;;;;;13.49;59.42;98124.63;4484024;31;33807;-65
2022/03/31 04:21:03;;;;;;;22.27;11.48;;;;;;;14.06;57.68;98117.09;4484753;32;33825;-64
2022/03/31 04:23:31;;;;;;;22.83;10.57;;;;;;;13.93;57.80;98119.66;4479819;31;34118;-65
2022/03/31 04:25:58;;;;;;;17.92;10.60;;;;;;;13.67;58.72;98113.44;4482856;31;33502;-63
2022/03/31 04:28:26;;;;;;;19.15;11.40;;;;;;;13.50;59.20;98122.03;4485540;31;33579;-64
2022/03/31 04:30:54;;;;;;;19.37;11.10;;;;;;;13.37;59.61;98125.44;4489519;31;34026;-64
2022/03/31 04:33:22;;;;;;;20.88;11.82;;;;;;;13.34;59.65;98125.41;4480436;31;34262;-63
2022/03/31 04:35:49;;;;;;;19.83;11.52;;;;;;;13.35;59.79;98129.75;4481696;31;33512;-64
2022/03/31 04:38:17;;;;;;;19.60;11.00;;;;;;;13.60;59.23;98122.06;4481564;32;31861;-64
2022/03/31 04:40:44;;;;;;;19.95;12.23;;;;;;;13.67;58.69;98123.84;4490024;31;34560;-64
2022/03/31 04:43:13;;;;;;;16.42;11.10;;;;;;;13.69;58.37;98119.53;4482181;32;33975;-63
2022/03/31 04:45:41;;;;;;;20.62;10.82;;;;;;;13.68;58.55;98120.41;4483700;32;33554;-64
2022/03/31 04:48:09;;;;;;;18.35;11.32;;;;;;;13.51;59.03;98123.78;4483855;31;33846;-63
2022/03/31 04:50:37;;;;;;;20.88;11.18;;;;;;;13.55;58.86;98115.12;4485546;31;33726;-64
2022/03/31 04:53:06;;;;;;;25.27;11.88;;;;;;;13.65;58.80;98104.78;4480056;31;31701;-63
2022/03/31 04:55:34;;;;;;;18.62;11.23;;;;;;;13.53;58.87;98101.25;4483023;31;33046;-63
2022/03/31 04:58:01;;;;;;;17.05;11.23;;;;;;;13.50;59.29;98098.62;4482585;31;34230;-63
2022/03/31 05:00:29;;;;;;;20.08;11.18;;;;;;;13.50;59.70;98106.44;4484676;31;34455;-64
2022/03/31 05:02:57;;;;;;;21.60;12.60;;;;;;;13.51;59.84;98113.38;4481364;31;33683;-64
2022/03/31 05:05:25;;;;;;;21.67;11.48;;;;;;;13.72;59.35;98106.56;4489723;31;33577;-64
2022/03/31 05:07:52;;;;;;;22.27;12.05;;;;;;;13.70;59.43;98103.06;4484784;31;34413;-64
2022/03/31 05:10:21;;;;;;;24.63;13.70;;;;;;;13.63;59.53;98101.28;4486845;31;34599;-64
2022/03/31 05:12:49;;;;;;;27.05;13.82;;;;;;;13.90;58.56;98100.56;4484208;31;33811;-64
2022/03/31 05:15:16;;;;;;;27.70;12.63;;;;;;;13.81;58.96;98104.00;4482462;32;34307;-64
2022/03/31 05:17:44;;;;;;;23.55;14.52;;;;;;;13.78;59.10;98096.16;4489943;31;34543;-64
2022/03/31 05:20:12;;;;;;;19.08;13.00;;;;;;;13.73;59.59;98097.88;4482582;31;33925;-64
2022/03/31 05:22:40;;;;;;;22.50;13.20;;;;;;;13.76;60.08;98103.09;4485969;31;33530;-64
2022/03/31 05:25:09;;;;;;;22.65;12.77;;;;;;;13.99;59.18;98104.94;4492533;31;33400;-64
2022/03/31 05:27:45;;;;;;;24.77;14.07;;;;;;;13.74;59.81;98110.03;4487881;31;33657;-64
2022/03/31 05:30:15;;;;;;;22.17;12.60;;;;;;;14.14;58.74;98105.00;4483905;32;34181;-63
2022/03/31 05:32:42;;;;;;;25.58;13.75;;;;;;;13.93;59.42;98093.63;4494357;31;33706;-64
2022/03/31 05:35:11;;;;;;;26.73;13.25;;;;;;;13.85;59.83;98102.25;4501498;31;33410;-64
2022/03/31 05:37:39;;;;;;;25.37;13.52;;;;;;;13.65;60.64;98099.56;4491228;31;33613;-63
2022/03/31 05:40:08;;;;;;;24.50;13.68;;;;;;;13.67;60.73;98098.69;4490038;31;33639;-64
2022/03/31 05:42:37;;;;;;;27.75;15.18;;;;;;;13.57;61.56;98097.78;4489340;31;33240;-64
2022/03/31 05:45:06;;;;;;;27.60;14.02;;;;;;;13.60;61.83;98096.94;4492299;31;34114;-63
2022/03/31 05:47:33;;;;;;;25.65;14.70;;;;;;;13.42;62.26;98102.91;4493977;31;33880;-64
2022/03/31 05:50:01;;;;;;;27.90;15.95;;;;;;;13.61;61.90;98092.62;4489103;31;33730;-64
2022/03/31 05:52:33;;;;;;;26.92;15.00;;;;;;;13.77;61.60;98095.31;4461350;31;32701;-63
2022/03/31 05:55:00;;;;;;;24.52;16.35;;;;;;;13.67;62.01;98103.03;4495726;31;34157;-63
2022/03/31 05:57:27;;;;;;;26.12;14.30;;;;;;;13.69;62.12;98098.72;4492796;31;34357;-64
2022/03/31 05:59:55;;;;;;;24.85;14.15;;;;;;;13.72;62.25;98103.94;4486927;31;33777;-64
2022/03/31 06:02:22;;;;;;;25.05;14.75;;;;;;;13.70;62.40;98100.47;4485548;31;33511;-63
2022/03/31 06:05:13;;;;;;;26.23;15.05;;;;;;;13.65;62.57;98104.78;4486193;31;33273;-64
2022/03/31 06:07:41;;;;;;;23.92;13.82;;;;;;;13.81;62.13;98101.41;4483602;32;33061;-64
2022/03/31 06:10:09;;;;;;;21.87;13.73;;;;;;;13.87;61.97;98105.72;4487593;31;34623;-63
2022/03/31 06:12:37;;;;;;;28.12;15.18;;;;;;;13.73;62.29;98103.06;4492510;31;33736;-64
2022/03/31 06:15:06;;;;;;;26.80;13.50;;;;;;;13.82;62.02;98103.13;4488795;31;33493;-64
2022/03/31 06:17:34;;;;;;;23.75;14.35;;;;;;;13.92;61.59;98102.28;4491406;31;33929;-65
2022/03/31 06:20:02;;;;;;;26.45;14.30;;;;;;;13.99;61.38;98104.94;4492216;31;33764;-65
2022/03/31 06:22:30;;;;;;;22.05;14.02;;;;;;;13.89;61.80;98099.69;4499515;31;33656;-63
2022/03/31 06:24:57;;;;;;;26.83;14.73;;;;;;;13.81;62.48;98113.50;4483860;31;33361;-64
2022/03/31 06:27:25;;;;;;;23.48;14.95;;;;;;;13.96;61.97;98106.66;4484545;31;34780;-63
2022/03/31 06:29:53;;;;;;;20.70;14.25;;;;;;;13.50;63.90;98123.75;4481243;31;33864;-63
2022/03/31 06:32:20;;;;;;;22.92;14.18;;;;;;;13.85;62.62;98126.56;4483719;31;33926;-64
2022/03/31 06:34:48;;;;;;;24.30;13.57;;;;;;;13.92;62.46;98125.72;4492721;31;34105;-63
2022/03/31 06:37:16;;;;;;;26.55;14.57;;;;;;;14.11;61.78;98136.22;4490432;31;34539;-64
2022/03/31 06:39:43;;;;;;;26.55;13.82;;;;;;;14.06;61.93;98125.78;4491061;31;33953;-63
2022/03/31 06:42:11;;;;;;;25.65;14.38;;;;;;;14.24;61.41;98130.19;4484831;31;33684;-64
2022/03/31 06:44:38;;;;;;;26.50;13.90;;;;;;;14.09;62.40;98133.59;4485684;31;33577;-64
2022/03/31 06:47:05;;;;;;;27.75;13.20;;;;;;;14.34;61.56;98134.56;4490494;31;34515;-63
2022/03/31 06:49:34;;;;;;;32.42;16.52;;;;;;;14.09;62.16;98143.16;4488938;31;33736;-63
2022/03/31 06:52:02;;;;;;;32.03;15.07;;;;;;;14.13;62.09;98144.91;4485650;31;33540;-63
2022/03/31 06:54:31;;;;;;;25.60;13.75;;;;;;;14.18;62.17;98147.50;4499000;31;33458;-64
2022/03/31 06:56:58;;;;;;;29.60;14.50;;;;;;;14.08;62.59;98141.41;4480721;31;33640;-64
2022/03/31 06:59:29;;;;;;;21.70;13.20;;;;;;;14.29;61.91;98138.91;4483053;31;34554;-64
2022/03/31 07:01:57;;;;;;;26.73;13.65;;;;;;;14.47;61.74;98139.81;4482197;31;33951;-64
2022/03/31 07:04:25;;;;;;;25.98;15.35;;;;;;;14.03;62.95;98143.13;4482478;31;32983;-64
2022/03/31 07:06:52;;;;;;;28.02;16.25;;;;;;;13.61;64.41;98136.84;4483343;31;34797;-64
2022/03/31 07:09:19;;;;;;;25.98;15.93;;;;;;;13.50;65.23;98137.66;4480945;32;33913;-64
2022/03/31 07:11:47;;;;;;;25.85;15.68;;;;;;;13.35;65.90;98133.22;4482662;31;34581;-63
2022/03/31 07:14:14;;;;;;;24.58;16.37;;;;;;;13.52;65.52;98129.84;4484079;31;33430;-63
2022/03/31 07:16:42;;;;;;;24.48;16.45;;;;;;;13.50;66.16;98135.06;4482740;31;33455;-64
2022/03/31 07:19:10;;;;;;;28.30;16.62;;;;;;;13.64;65.85;98129.06;4481350;31;33502;-63
2022/03/31 07:21:37;;;;;;;30.90;17.75;;;;;;;13.80;65.30;98125.66;4482146;31;34434;-63
2022/03/31 07:24:05;;;;;;;30.30;16.40;;;;;;;13.47;66.69;98132.41;4481352;31;33490;-63
2022/03/31 07:26:33;;;;;;;26.62;16.58;;;;;;;13.41;67.22;98124.59;4482059;31;34498;-63
2022/03/31 07:29:01;;;;;;;29.70;16.75;;;;;;;13.60;67.10;98129.88;4482843;31;34584;-63
2022/03/31 07:31:29;;;;;;;26.10;16.40;;;;;;;13.56;67.17;98126.41;4483139;31;33679;-63
2022/03/31 07:33:57;;;;;;;24.92;16.35;;;;;;;13.34;67.75;98135.78;4482249;31;34112;-63
2022/03/31 07:36:25;;;;;;;30.52;15.75;;;;;;;13.16;68.87;98126.97;4480253;32;33843;-63
2022/03/31 07:38:52;;;;;;;27.08;16.00;;;;;;;13.25;68.55;98127.88;4481833;31;33911;-63
2022/03/31 07:41:20;;;;;;;26.23;15.80;;;;;;;13.03;69.03;98130.31;4479928;32;32347;-63
2022/03/31 07:43:47;;;;;;;26.67;15.85;;;;;;;13.31;67.98;98128.00;4479906;32;31559;-63
2022/03/31 07:46:15;;;;;;;24.08;15.30;;;;;;;13.22;68.25;98131.34;4482079;31;34830;-63
2022/03/31 07:48:43;;;;;;;31.65;17.10;;;;;;;13.17;67.99;98133.94;4481583;31;34575;-63
2022/03/31 07:51:10;;;;;;;28.35;15.82;;;;;;;13.52;66.83;98122.94;4482341;31;33640;-64
2022/03/31 07:53:38;;;;;;;30.85;16.30;;;;;;;13.49;67.07;98125.50;4478375;31;34011;-63
2022/03/31 07:56:06;;;;;;;25.73;14.40;;;;;;;13.47;67.54;98124.63;4479423;31;34611;-62
2022/03/31 07:58:33;;;;;;;31.62;15.45;;;;;;;13.50;67.50;98116.84;4475966;31;32561;-63
2022/03/31 08:01:01;;;;;;;28.85;16.65;;;;;;;13.51;66.90;98123.78;4480645;31;33678;-63
2022/03/31 08:03:29;;;;;;;29.90;16.40;;;;;;;13.78;66.41;98109.19;4476942;31;32042;-62
2022/03/31 08:05:56;;;;;;;34.08;17.67;;;;;;;13.72;66.82;98116.97;4477331;32;35670;-63
2022/03/31 08:08:24;;;;;;;30.30;17.05;;;;;;;13.35;68.59;98119.34;4482144;31;34593;-64
2022/03/31 08:10:51;;;;;;;32.05;17.45;;;;;;;13.16;69.59;98119.16;4484532;31;34611;-65
2022/03/31 08:13:26;;;;;;;31.27;17.23;;;;;;;12.96;69.63;98115.53;4481698;31;32362;-63
2022/03/31 08:15:55;;;;;;;32.28;16.45;;;;;;;12.74;71.33;98109.28;4480166;31;32593;-65
2022/03/31 08:18:26;;;;;;;26.37;16.33;;;;;;;12.80;71.01;98106.75;4481296;31;33802;-63
2022/03/31 08:20:53;;;;;;;29.20;17.50;;;;;;;12.61;72.05;98103.09;4482556;31;34640;-64
2022/03/31 08:23:21;;;;;;;30.95;17.58;;;;;;;13.06;70.67;98104.38;4466802;32;33894;-63
2022/03/31 08:25:48;;;;;;;33.95;18.62;;;;;;;13.11;70.66;98101.78;4479465;31;34707;-63
2022/03/31 08:28:16;;;;;;;29.30;18.35;;;;;;;13.24;70.30;98092.38;4479272;31;34357;-64
2022/03/31 08:30:44;;;;;;;32.15;17.80;;;;;;;13.29;70.74;98085.44;4479181;31;33499;-63
2022/03/31 08:33:11;;;;;;;34.65;17.55;;;;;;;13.17;70.95;98075.84;4476736;32;31563;-64
2022/03/31 08:35:44;;;;;;;29.77;18.62;;;;;;;13.35;70.11;98065.59;4479452;31;32366;-64
2022/03/31 08:38:12;;;;;;;36.80;18.25;;;;;;;13.43;69.90;98073.44;4480106;31;34528;-63
2022/03/31 08:40:47;;;;;;;30.20;16.98;;;;;;;13.86;68.66;98068.44;4481117;31;33100;-62
2022/03/31 08:43:14;;;;;;;29.10;17.42;;;;;;;13.77;68.87;98076.19;4481242;31;33274;-63
2022/03/31 08:45:43;;;;;;;37.20;18.58;;;;;;;13.75;69.14;98064.91;4480575;31;33827;-63
2022/03/31 08:48:11;;;;;;;33.85;17.70;;;;;;;13.80;68.71;98063.22;4478416;31;33940;-64
2022/03/31 08:50:40;;;;;;;30.15;17.77;;;;;;;13.82;68.99;98071.88;4479186;31;33931;-63
2022/03/31 08:53:07;;;;;;;32.33;16.87;;;;;;;13.92;69.13;98058.03;4480485;31;33925;-62
2022/03/31 08:55:35;;;;;;;24.80;15.50;;;;;;;13.50;70.53;98062.22;4466644;32;33576;-64
2022/03/31 08:58:03;;;;;;;31.98;16.67;;;;;;;13.62;70.06;98055.31;4478716;31;34566;-64
2022/03/31 09:00:30;;;;;;;29.85;16.25;;;;;;;13.67;70.03;98051.00;4481908;31;32700;-64
2022/03/31 09:03:00;;;;;;;31.05;17.67;;;;;;;13.92;69.35;98041.56;4482445;31;33697;-64
2022/03/31 09:05:37;;;;;;;27.48;18.08;;;;;;;13.95;69.25;98044.19;4480022;32;33949;-63
2022/03/31 09:08:06;;;;;;;32.45;17.00;;;;;;;13.85;69.96;98040.69;4481879;31;33966;-63
2022/03/31 09:10:36;;;;;;;27.52;16.80;;;;;;;13.94;69.95;98034.63;4483408;31;34461;-63
2022/03/31 09:13:16;;;;;;;28.75;16.67;;;;;;;13.76;70.60;98030.22;4483205;31;32979;-63
2022/03/31 09:16:06;;;;;;;25.12;16.73;;;;;;;13.62;71.36;98032.78;4481585;31;34659;-64
2022/03/31 09:18:35;;;;;;;31.15;18.45;;;;;;;13.69;71.31;98028.47;4484913;31;33459;-64
2022/03/31 09:21:07;;;;;;;34.35;18.15;;;;;;;13.83;70.51;98019.00;4487443;31;33854;-63
2022/03/31 09:23:49;;;;;;;31.77;18.90;;;;;;;13.81;71.11;98018.13;4481949;31;33265;-63
2022/03/31 09:26:17;;;;;;;27.60;16.90;;;;;;;13.72;71.65;98012.88;4477932;31;34456;-65
2022/03/31 09:28:45;;;;;;;27.00;16.55;;;;;;;13.80;71.28;98016.38;4482731;31;33888;-63
2022/03/31 09:31:25;;;;;;;27.42;17.00;;;;;;;13.70;70.97;98004.19;4490137;31;34614;-64
2022/03/31 09:33:55;;;;;;;27.45;16.15;;;;;;;13.74;70.82;98012.00;4498895;31;33649;-64
2022/03/31 09:36:25;;;;;;;25.98;16.45;;;;;;;13.71;71.29;98012.00;4490151;31;32894;-63
2022/03/31 09:38:56;;;;;;;28.17;17.45;;;;;;;13.52;72.10;98011.06;4486781;31;34665;-63
2022/03/31 09:41:27;;;;;;;29.40;16.67;;;;;;;13.56;72.12;98011.97;4495198;31;34150;-64
2022/03/31 09:43:56;;;;;;;31.62;16.90;;;;;;;14.01;70.34;98009.50;4493262;31;34210;-62
2022/03/31 09:46:26;;;;;;;27.77;16.80;;;;;;;13.78;71.00;98007.69;4485016;31;34248;-63
2022/03/31 09:48:59;;;;;;;;;;;;;;;13.60;72.36;97999.81;4477143;31;34595;-63
2022/03/31 09:51:27;;;;;;;29.95;15.82;;;;;;;13.69;71.47;97998.09;4495196;31;33662;-62
2022/03/31 09:53:54;;;;;;;31.77;15.75;;;;;;;13.73;70.95;97993.78;4476125;32;31752;-64
2022/03/31 09:56:27;;;;;;;27.05;14.95;;;;;;;13.78;70.55;97992.06;4498103;31;34560;-63
2022/03/31 09:58:59;;;;;;;28.60;16.98;;;;;;;13.59;70.87;97996.34;4487094;31;33823;-63
2022/03/31 10:01:27;;;;;;;27.20;16.60;;;;;;;13.35;71.86;97997.13;4484786;32;33713;-63
2022/03/31 10:03:56;;;;;;;28.62;16.70;;;;;;;13.40;71.53;97990.19;4495830;31;33387;-63
2022/03/31 10:06:25;;;;;;;28.92;17.05;;;;;;;13.36;71.61;97989.31;4490844;31;34622;-62
2022/03/31 10:08:53;;;;;;;29.67;17.65;;;;;;;13.68;70.92;97990.31;4490116;31;34763;-63
2022/03/31 10:11:23;;;;;;;26.55;17.25;;;;;;;13.55;70.76;97985.06;4492145;31;33638;-63
2022/03/31 10:14:06;;;;;;;29.20;17.52;;;;;;;13.36;72.00;97989.31;4484007;31;34461;-63
2022/03/31 10:16:41;;;;;;;28.80;17.02;;;;;;;13.27;72.64;97985.75;4484965;31;33933;-63
2022/03/31 10:19:09;;;;;;;28.12;18.15;;;;;;;13.04;73.82;97981.34;4493017;31;33980;-64
2022/03/31 10:21:37;;;;;;;28.92;17.48;;;;;;;13.08;73.74;97977.03;4478399;31;33805;-64
2022/03/31 10:27:01;;;;;;;27.80;16.85;;;;;;;13.55;72.05;97979.00;4484927;31;34436;-63
2022/03/31 10:29:40;;;;;;;29.70;16.42;;;;;;;13.95;70.53;97979.09;4482012;32;33018;-63
2022/03/31 10:32:23;;;;;;;27.40;16.15;;;;;;;13.71;71.10;97970.38;4484207;31;33558;-64
2022/03/31 10:34:53;;;;;;;27.15;15.68;;;;;;;13.68;71.09;97975.56;4485455;31;34371;-64
2022/03/31 10:37:37;;;;;;;32.70;17.92;;;;;;;13.95;70.36;97979.97;4484656;31;34564;-65
2022/03/31 10:40:09;;;;;;;27.40;15.63;;;;;;;13.65;71.46;97982.50;4496265;31;33865;-64
2022/03/31 10:42:37;;;;;;;28.23;15.82;;;;;;;13.81;70.66;97978.19;4488254;31;33673;-63
2022/03/31 10:45:12;;;;;;;28.23;16.62;;;;;;;13.40;72.46;97974.59;4495480;31;31644;-63
2022/03/31 10:47:42;;;;;;;31.15;18.05;;;;;;;13.29;72.87;97960.63;4487037;31;34651;-64
2022/03/31 10:50:28;;;;;;;31.20;17.35;;;;;;;13.14;74.36;97962.31;4484618;32;31868;-64
2022/03/31 10:53:00;;;;;;;32.35;18.23;;;;;;;13.21;74.89;97946.75;4487052;31;32662;-63
2022/03/31 10:55:47;;;;;;;30.25;18.08;;;;;;;13.26;74.77;97935.50;4494288;31;33821;-65
2022/03/31 10:58:27;;;;;;;30.77;18.73;;;;;;;13.42;75.03;97931.25;4482754;32;32530;-63
2022/03/31 11:00:56;;;;;;;29.63;17.92;;;;;;;13.39;75.56;97930.41;4483634;31;35828;-65
2022/03/31 11:03:24;;;;;;;26.08;18.15;;;;;;;13.67;74.15;97928.72;4484731;31;33596;-64
2022/03/31 11:05:53;;;;;;;28.40;18.30;;;;;;;13.89;73.35;97927.06;4491502;31;33928;-64
2022/03/31 11:08:20;;;;;;;33.30;18.10;;;;;;;14.20;72.44;97922.72;4495934;31;34638;-64
2022/03/31 11:10:52;;;;;;;26.45;17.73;;;;;;;13.49;75.39;97917.41;4488177;31;34356;-65
2022/03/31 11:13:30;;;;;;;29.00;19.12;;;;;;;13.69;75.18;97919.19;4485667;31;34558;-64
2022/03/31 11:15:58;;;;;;;28.52;18.35;;;;;;;13.49;75.91;97916.53;4487018;31;33603;-64
2022/03/31 11:18:25;;;;;;;30.92;17.67;;;;;;;13.44;76.45;97908.72;4487711;31;34037;-65
2022/03/31 11:21:02;;;;;;;28.85;16.80;;;;;;;13.61;75.53;97900.09;4496642;31;34594;-64
2022/03/31 11:23:31;;;;;;;31.52;17.83;;;;;;;13.43;75.92;97904.41;4480936;31;33691;-63
2022/03/31 11:25:59;;;;;;;32.03;17.52;;;;;;;13.35;76.71;97893.09;4493191;31;34261;-64
2022/03/31 11:28:29;;;;;;;27.02;16.27;;;;;;;13.47;75.87;97903.53;4485712;31;34043;-64
2022/03/31 11:30:59;;;;;;;25.27;16.42;;;;;;;13.13;77.29;97895.59;4487183;31;33971;-63